Time;durP1;ratioP1;P1;durP2;ratioP2;P2;SDS_P1;SDS_P2;PMS_P1;PMS_P2;Temp;Humidity;BMP_temperature;BMP_pressure;BME280_temperature;BME280_humidity;BME280_pressure;Samples;Min_cycle;Max_cycle;Signal;HPM_P1;HPM_P2
2022/01/24 00:01:03;;;;;;;13.80;6.68;;;;;;;;;;5054772;28;20227;-83
2022/01/24 00:03:30;;;;;;;8.88;5.72;;;;;;;;;;5047458;28;20219;-83
2022/01/24 00:05:57;;;;;;;10.05;7.60;;;;;;;;;;5044894;28;20283;-82
2022/01/24 00:08:24;;;;;;;8.30;6.00;;;;;;;;;;5056792;28;20625;-82
2022/01/24 00:10:54;;;;;;;10.85;6.97;;;;;;;;;;5058243;28;20250;-83
2022/01/24 00:16:20;;;;;;;7.82;6.18;;;;;;;;;;5055517;28;20313;-83
2022/01/24 00:27:04;;;;;;;8.30;5.97;;;;;;;;;;5055883;28;20949;-83
2022/01/24 00:29:31;;;;;;;10.15;6.88;;;;;;;;;;5058628;28;20286;-83
2022/01/24 00:31:58;;;;;;;9.70;7.40;;;;;;;;;;5051056;28;20203;-84
2022/01/24 00:34:25;;;;;;;7.88;6.47;;;;;;;;;;5049343;28;20244;-84
2022/01/24 00:36:53;;;;;;;8.93;5.57;;;;;;;;;;5049129;28;20243;-83
2022/01/24 00:39:20;;;;;;;9.18;6.40;;;;;;;;;;5057552;28;20296;-83
2022/01/24 00:41:58;;;;;;;12.02;7.28;;;;;;;;;;5055627;28;20200;-83
2022/01/24 00:44:43;;;;;;;6.82;6.18;;;;;;;;;;5052967;28;20232;-83
2022/01/24 00:47:15;;;;;;;8.57;7.43;;;;;;;;;;5056803;28;20208;-84
2022/01/24 00:52:57;;;;;;;8.27;6.38;;;;;;;;;;5054026;28;20318;-83
2022/01/24 00:55:25;;;;;;;8.18;5.82;;;;;;;;;;5052442;28;20207;-83
2022/01/24 00:57:52;;;;;;;10.93;7.97;;;;;;;;;;5046505;28;20587;-84
2022/01/24 01:00:20;;;;;;;8.73;7.45;;;;;;;;;;5056679;28;20277;-83
2022/01/24 01:02:48;;;;;;;9.55;5.57;;;;;;;;;;5052264;28;20205;-84
2022/01/24 01:05:32;;;;;;;7.18;5.50;;;;;;;;;;5053568;28;20207;-83
2022/01/24 01:18:04;;;;;;;7.10;5.35;;;;;;;;;;5050906;28;20259;-84
2022/01/24 01:19:08;;;;;;;9.15;6.95;;;;;;;;;;5050488;28;20320;-83
2022/01/24 01:21:36;;;;;;;10.48;6.72;;;;;;;;;;5058397;28;20203;-84
2022/01/24 01:24:04;;;;;;;7.05;5.60;;;;;;;;;;5052284;28;20262;-84
2022/01/24 01:26:37;;;;;;;6.65;5.95;;;;;;;;;;5048224;28;20215;-83
2022/01/24 01:29:09;;;;;;;7.10;5.97;;;;;;;;;;5054967;28;20607;-83
2022/01/24 01:31:46;;;;;;;9.20;6.43;;;;;;;;;;5051860;28;20203;-84
2022/01/24 01:34:34;;;;;;;6.90;6.18;;;;;;;;;;5054443;28;20273;-84
2022/01/24 01:40:28;;;;;;;13.63;6.95;;;;;;;;;;5032316;28;20342;-83
2022/01/24 01:54:07;;;;;;;10.10;7.30;;;;;;;;;;5043097;28;20563;-83
2022/01/24 01:56:35;;;;;;;10.82;7.55;;;;;;;;;;5050751;28;20211;-83
2022/01/24 01:59:02;;;;;;;12.10;6.32;;;;;;;;;;5058724;28;20313;-84
2022/01/24 02:01:30;;;;;;;9.32;7.28;;;;;;;;;;5049998;28;20250;-83
2022/01/24 02:04:02;;;;;;;8.98;6.88;;;;;;;;;;5053693;28;20696;-84
2022/01/24 02:06:30;;;;;;;11.15;6.72;;;;;;;;;;5046671;28;20561;-84
2022/01/24 02:09:00;;;;;;;10.10;6.70;;;;;;;;;;5051092;28;20236;-83
2022/01/24 02:11:27;;;;;;;9.60;7.60;;;;;;;;;;5055228;28;20195;-84
2022/01/24 02:13:58;;;;;;;12.98;7.57;;;;;;;;;;5055127;28;20192;-83
2022/01/24 02:16:35;;;;;;;7.07;6.22;;;;;;;;;;5057618;28;20199;-84
2022/01/24 02:19:17;;;;;;;7.70;6.40;;;;;;;;;;5046522;28;20265;-83
2022/01/24 02:21:58;;;;;;;13.85;7.60;;;;;;;;;;5052159;28;20203;-84
2022/01/24 02:24:30;;;;;;;8.93;5.60;;;;;;;;;;5054050;28;20286;-83
2022/01/24 02:26:59;;;;;;;10.75;7.72;;;;;;;;;;5054799;28;20621;-84
2022/01/24 02:29:43;;;;;;;11.18;6.95;;;;;;;;;;5050842;28;20208;-84
2022/01/24 02:32:12;;;;;;;10.13;6.40;;;;;;;;;;5057284;28;20203;-84
2022/01/24 02:34:41;;;;;;;8.27;5.78;;;;;;;;;;5054269;28;20291;-83
2022/01/24 02:37:12;;;;;;;10.52;6.47;;;;;;;;;;5053900;28;20653;-84
2022/01/24 02:50:45;;;;;;;10.05;6.65;;;;;;;;;;5043284;28;20209;-84
2022/01/24 02:53:14;;;;;;;8.48;6.72;;;;;;;;;;5048917;28;20561;-84
2022/01/24 02:55:41;;;;;;;10.40;6.93;;;;;;;;;;5050400;28;20254;-83
2022/01/24 02:58:09;;;;;;;9.30;6.65;;;;;;;;;;5052157;28;20669;-84
2022/01/24 03:00:37;;;;;;;9.20;7.00;;;;;;;;;;5054631;28;20703;-84
2022/01/24 03:03:05;;;;;;;9.90;5.85;;;;;;;;;;5053247;28;20281;-84
2022/01/24 03:05:32;;;;;;;9.75;5.95;;;;;;;;;;5053053;28;20858;-84
2022/01/24 03:07:59;;;;;;;10.93;8.02;;;;;;;;;;5051998;28;20611;-83
2022/01/24 03:10:35;;;;;;;11.25;6.80;;;;;;;;;;5046086;28;20215;-83
2022/01/24 03:13:17;;;;;;;8.82;6.63;;;;;;;;;;5059524;28;20191;-83
2022/01/24 03:15:45;;;;;;;8.65;6.88;;;-0.10;99.90;;;;;;5050180;28;20204;-84
2022/01/24 03:18:12;;;;;;;7.22;5.75;;;;;;;;;;5049377;28;20695;-84
2022/01/24 03:20:40;;;;;;;13.02;9.07;;;;;;;;;;5050347;28;20304;-83
2022/01/24 03:23:07;;;;;;;9.77;6.82;;;;;;;;;;5053722;28;20295;-84
2022/01/24 03:25:36;;;;;;;10.73;7.60;;;;;;;;;;5053853;28;20227;-84
2022/01/24 03:28:04;;;;;;;9.07;7.10;;;;;;;;;;5052432;28;20217;-83
2022/01/24 03:30:32;;;;;;;12.93;7.93;;;;;;;;;;5050960;28;20200;-83
2022/01/24 03:32:59;;;;;;;11.80;7.18;;;;;;;;;;5053203;28;20739;-83
2022/01/24 03:35:26;;;;;;;8.55;7.30;;;;;;;;;;5049670;28;20208;-84
2022/01/24 03:37:53;;;;;;;8.57;6.55;;;;;;;;;;5058164;28;20228;-84
2022/01/24 03:40:21;;;;;;;15.07;6.85;;;;;;;;;;5050037;28;20262;-83
2022/01/24 03:42:49;;;;;;;13.95;8.75;;;;;;;;;;5041260;28;20766;-83
2022/01/24 03:45:24;;;;;;;11.07;6.32;;;;;;;;;;5054656;28;20196;-83
2022/01/24 03:48:03;;;;;;;10.30;7.75;;;;;;;;;;5054982;28;20725;-83
2022/01/24 03:50:30;;;;;;;12.02;8.35;;;;;;;;;;5058456;28;20279;-83
2022/01/24 03:52:57;;;;;;;9.93;8.18;;;;;;;;;;5061080;28;20199;-84
2022/01/24 03:55:24;;;;;;;11.48;7.70;;;;;;;;;;5050678;28;20280;-84
2022/01/24 03:57:53;;;;;;;8.25;6.25;;;;;;;;;;5051941;28;20242;-83
2022/01/24 04:00:21;;;;;;;13.35;8.57;;;;;;;;;;5053632;28;20224;-84
2022/01/24 04:02:48;;;;;;;10.73;8.02;;;;;;;;;;5060762;28;20203;-84
2022/01/24 04:05:15;;;;;;;12.95;8.25;;;;;;;;;;5056435;28;20203;-84
2022/01/24 04:07:42;;;;;;;11.02;8.82;;;;;;;;;;5056475;28;20310;-84
2022/01/24 04:10:12;;;;;;;12.15;7.68;;;;;;;;;;5056964;28;20561;-84
2022/01/24 04:12:40;;;;;;;10.27;8.23;;;;;;;;;;5054570;28;20211;-83
2022/01/24 04:15:23;;;;;;;13.70;9.25;;;;;;;;;;5057893;28;20212;-84
2022/01/24 04:18:08;;;;;;;10.45;7.82;;;;;;;;;;5056533;28;20257;-84
2022/01/24 04:23:21;;;;;;;9.27;8.27;;;;;;;;;;5055839;28;20219;-84
2022/01/24 04:25:48;;;;;;;12.55;8.07;;;;;;;;;;5057053;28;20607;-84
2022/01/24 04:28:15;;;;;;;7.30;6.25;;;;;;;;;;5055210;28;20262;-83
2022/01/24 04:30:44;;;;;;;9.55;5.80;;;;;;;;;;5052671;28;20204;-84
2022/01/24 04:33:11;;;;;;;12.55;8.35;;;;;;;;;;5052860;28;20258;-83
2022/01/24 04:35:38;;;;;;;9.13;7.70;;;;;;;;;;5056277;28;20220;-84
2022/01/24 04:38:05;;;;;;;8.18;6.68;;;;;;;;;;5049769;28;20265;-84
2022/01/24 04:40:32;;;;;;;10.80;7.20;;;;;;;;;;5055425;28;20281;-84
2022/01/24 04:43:21;;;;;;;11.27;7.50;;;;;;;;;;5056151;28;20266;-84
2022/01/24 04:51:33;;;;;;;10.10;7.88;;;;;;;;;;5050140;28;20216;-83
2022/01/24 04:54:38;;;;;;;10.38;7.18;;;;;;;;;;5056795;28;20210;-83
2022/01/24 04:57:07;;;;;;;10.07;8.13;;;;;;;;;;5053393;28;20195;-84
2022/01/24 04:59:34;;;;;;;9.48;8.25;;;;;;;;;;5056340;28;20316;-84
2022/01/24 05:02:03;;;;;;;13.98;8.80;;;;;;;;;;5056604;28;20277;-84
2022/01/24 05:04:30;;;;;;;15.93;9.13;;;;;;;;;;5046328;28;20277;-84
2022/01/24 05:06:57;;;;;;;14.18;9.82;;;;;;;;;;5056898;28;20199;-84
2022/01/24 05:09:25;;;;;;;14.57;11.00;;;;;;;;;;5057469;28;20297;-83
2022/01/24 05:11:57;;;;;;;17.70;11.30;;;;;;;;;;5053296;28;20206;-84
2022/01/24 05:25:25;;;;;;;11.90;9.88;;;;;;;;;;5052784;28;20617;-83
2022/01/24 05:27:53;;;;;;;15.30;10.60;;;;;;;;;;5053976;28;20209;-84
2022/01/24 05:30:20;;;;;;;16.55;9.30;;;;;;;;;;5058632;28;20297;-83
2022/01/24 05:32:49;;;;;;;13.00;9.73;;;;;;;;;;5050455;28;20689;-84
2022/01/24 05:35:16;;;;;;;13.23;10.25;;;;;;;;;;5053500;28;20224;-84
2022/01/24 05:37:43;;;;;;;14.25;10.10;;;;;;;;;;5059328;28;20294;-85
2022/01/24 05:40:10;;;;;;;18.25;13.63;;;;;;;;;;5047860;28;20812;-85
2022/01/24 05:42:38;;;;;;;11.70;10.07;;;;;;;;;;5056770;28;20207;-85
2022/01/24 05:45:06;;;;;;;17.38;10.55;;;-0.50;99.90;;;;;;5050396;28;20306;-86
2022/01/24 05:47:34;;;;;;;14.05;10.57;;;;;;;;;;5056500;28;20253;-86
2022/01/24 05:50:02;;;;;;;13.20;9.40;;;;;;;;;;5046580;28;20219;-86
2022/01/24 05:52:29;;;;;;;10.50;9.18;;;;;;;;;;5051353;28;20728;-86
2022/01/24 05:54:57;;;;;;;14.13;9.65;;;;;;;;;;5047199;28;20744;-86
2022/01/24 05:57:24;;;;;;;13.52;9.73;;;;;;;;;;5048742;28;20223;-86
2022/01/24 05:59:51;;;;;;;12.65;11.02;;;;;;;;;;5050374;28;20235;-86
2022/01/24 06:02:18;;;;;;;17.80;13.38;;;;;;;;;;5047729;28;21084;-86
2022/01/24 06:04:46;;;;;;;19.83;12.70;;;;;;;;;;5060351;28;20211;-86
2022/01/24 06:07:14;;;;;;;15.70;12.52;;;;;;;;;;5050403;28;20208;-86
2022/01/24 06:09:42;;;;;;;18.42;13.55;;;;;;;;;;5060796;28;20203;-85
2022/01/24 06:12:12;;;;;;;11.65;8.18;;;;;;;;;;5050172;28;20741;-86
2022/01/24 06:14:39;;;;;;;15.13;9.60;;;;;;;;;;5055975;28;20214;-86
2022/01/24 06:17:06;;;;;;;10.77;8.40;;;;;;;;;;5055669;28;20204;-86
2022/01/24 06:19:33;;;;;;;11.70;9.80;;;;;;;;;;5056886;28;20199;-86
2022/01/24 06:22:01;;;;;;;14.35;9.75;;;;;;;;;;5046780;28;20259;-86
2022/01/24 06:24:29;;;;;;;12.60;8.80;;;;;;;;;;5058707;28;20625;-85
2022/01/24 06:26:56;;;;;;;17.20;9.90;;;;;;;;;;5053704;28;20262;-85
2022/01/24 06:29:23;;;;;;;10.90;8.25;;;;;;;;;;5046588;28;20204;-85
2022/01/24 06:31:51;;;;;;;16.15;9.50;;;;;;;;;;5057078;28;20693;-85
2022/01/24 06:34:18;;;;;;;12.82;9.20;;;;;;;;;;5058712;28;20787;-85
2022/01/24 06:36:45;;;;;;;16.55;9.13;;;;;;;;;;5056954;28;20637;-86
2022/01/24 06:39:14;;;;;;;11.98;8.55;;;;;;;;;;5059340;28;20237;-86
2022/01/24 06:41:50;;;;;;;14.25;8.52;;;;;;;;;;5052252;28;20238;-86
2022/01/24 06:44:17;;;;;;;9.55;7.05;;;;;;;;;;5053457;28;20208;-85
2022/01/24 06:46:45;;;;;;;10.18;7.78;;;;;;;;;;5058751;28;20722;-85
2022/01/24 06:49:13;;;;;;;11.00;8.85;;;;;;;;;;5060463;28;20203;-86
2022/01/24 06:51:41;;;;;;;15.77;10.93;;;;;;;;;;5052295;28;20207;-85
2022/01/24 06:54:08;;;;;;;13.90;8.40;;;;;;;;;;5058136;28;20211;-85
2022/01/24 06:56:35;;;;;;;15.07;10.05;;;;;;;;;;5057918;28;20207;-85
2022/01/24 06:59:04;;;;;;;12.50;9.43;;;;;;;;;;5060588;28;20252;-86
2022/01/24 07:01:31;;;;;;;13.02;9.27;;;;;;;;;;5055634;28;20263;-86
2022/01/24 07:03:58;;;;;;;11.32;8.70;;;;;;;;;;5056097;28;20725;-86
2022/01/24 07:06:25;;;;;;;14.43;8.57;;;;;;;;;;5060042;28;20688;-86
2022/01/24 07:08:52;;;;;;;12.73;9.05;;;;;;;;;;5057525;28;20287;-86
2022/01/24 07:11:20;;;;;;;14.30;9.73;;;;;;;;;;5057656;28;20242;-86
2022/01/24 07:13:47;;;;;;;13.00;11.50;;;;;;;;;;5055509;28;20241;-85
2022/01/24 07:16:15;;;;;;;11.00;9.77;;;;;;;;;;5059170;28;20257;-85
2022/01/24 07:18:58;;;;;;;12.38;9.23;;;;;;;;;;5061205;28;20203;-86
2022/01/24 07:21:25;;;;;;;13.00;8.90;;;;;;;;;;5058380;28;20280;-85
2022/01/24 07:23:52;;;;;;;14.70;10.38;;;;;;;;;;5060005;28;20303;-85
2022/01/24 07:26:20;;;;;;;21.73;12.25;;;;;;;;;;5058901;28;20204;-86
2022/01/24 07:28:47;;;;;;;15.35;10.02;;;;;;;;;;5055559;28;20260;-86
2022/01/24 07:31:15;;;;;;;10.32;9.23;;;;;;;;;;5050162;28;20291;-85
2022/01/24 07:33:42;;;;;;;17.00;12.80;;;;;;;;;;5034313;28;20776;-85
2022/01/24 07:36:10;;;;;;;18.08;11.40;;;;;;;;;;5057187;28;20705;-85
2022/01/24 07:38:37;;;;;;;15.02;11.30;;;;;;;;;;5052634;28;20609;-86
2022/01/24 07:41:04;;;;;;;18.25;10.85;;;;;;;;;;5054856;28;20219;-85
2022/01/24 07:43:31;;;;;;;18.40;12.88;;;;;;;;;;5052332;28;20226;-85
2022/01/24 07:45:59;;;;;;;16.75;12.32;;;;;;;;;;5050192;28;20597;-85
2022/01/24 07:48:27;;;;;;;15.43;11.25;;;;;;;;;;5055703;28;20719;-85
2022/01/24 07:50:54;;;;;;;19.10;12.15;;;;;;;;;;5051303;28;20232;-85
2022/01/24 07:53:24;;;;;;;17.38;13.02;;;;;;;;;;5056549;28;20250;-86
2022/01/24 07:55:52;;;;;;;17.20;11.80;;;;;;;;;;5056479;28;20534;-86
2022/01/24 07:58:20;;;;;;;20.83;13.05;;;;;;;;;;5059019;28;20206;-85
2022/01/24 08:00:47;;;;;;;14.00;11.55;;;;;;;;;;5055531;28;20276;-85
2022/01/24 08:03:15;;;;;;;19.95;11.40;;;;;;;;;;5055632;28;20242;-85
2022/01/24 08:05:44;;;;;;;20.05;11.50;;;;;;;;;;5050702;28;20206;-86
2022/01/24 08:08:11;;;;;;;19.48;10.98;;;;;;;;;;5063491;28;20215;-85
2022/01/24 08:10:38;;;;;;;18.45;12.35;;;;;;;;;;5052420;28;20235;-85
2022/01/24 08:13:05;;;;;;;14.88;10.45;;;;;;;;;;5056863;28;20213;-85
2022/01/24 08:15:33;;;;;;;16.65;10.02;;;;;;;;;;5061235;28;20265;-85
2022/01/24 08:18:00;;;;;;;19.05;12.52;;;;;;;;;;5056049;28;20288;-85
2022/01/24 08:20:27;;;;;;;17.50;10.88;;;;;;;;;;5055793;28;20261;-85
2022/01/24 08:22:56;;;;;;;18.63;12.00;;;;;;;;;;5057615;28;20249;-85
2022/01/24 08:25:23;;;;;;;19.52;12.50;;;;;;;;;;5059106;28;20207;-85
2022/01/24 08:27:50;;;;;;;17.15;11.77;;;;;;;;;;5053519;28;20235;-84
2022/01/24 08:30:19;;;;;;;17.08;11.05;;;;;;;;;;5057249;28;20685;-84
2022/01/24 08:32:46;;;;;;;17.13;11.80;;;;;;;;;;5058066;28;20266;-85
2022/01/24 08:35:15;;;;;;;15.65;12.13;;;;;;;;;;5053805;28;20196;-85
2022/01/24 08:37:42;;;;;;;21.13;13.82;;;;;;;;;;5052387;28;20227;-85
2022/01/24 08:40:19;;;;;;;14.50;10.88;;;1.70;99.90;;;;;;5050263;28;20213;-85
2022/01/24 08:42:55;;;;;;;19.65;12.65;;;;;;;;;;5053756;28;20215;-84
2022/01/24 08:48:07;;;;;;;17.13;13.43;;;;;;;;;;5060116;28;20211;-84
2022/01/24 08:50:35;;;;;;;16.73;12.07;;;;;;;;;;5059031;28;20629;-85
2022/01/24 08:53:03;;;;;;;15.10;10.20;;;;;;;;;;5058147;28;20263;-85
2022/01/24 08:55:31;;;;;;;15.95;11.63;;;;;;;;;;5050779;28;20204;-84
2022/01/24 08:57:59;;;;;;;15.25;10.18;;;;;;;;;;5059914;28;20708;-85
2022/01/24 09:00:26;;;;;;;20.70;12.85;;;;;;;;;;5054289;28;20208;-85
2022/01/24 09:02:54;;;;;;;15.73;10.70;;;;;;;;;;5053521;28;20640;-85
2022/01/24 09:05:23;;;;;;;14.88;9.93;;;;;;;;;;5047281;28;20215;-85
2022/01/24 09:07:51;;;;;;;15.88;10.50;;;;;;;;;;5059702;28;20207;-85
2022/01/24 09:10:18;;;;;;;13.80;9.95;;;;;;;;;;5057206;28;20200;-84
2022/01/24 09:12:47;;;;;;;15.38;9.95;;;;;;;;;;5049633;28;20556;-84
2022/01/24 09:15:15;;;;;;;14.00;10.35;;;;;;;;;;5059476;28;20669;-84
2022/01/24 09:17:43;;;;;;;13.93;11.50;;;;;;;;;;5056357;28;20289;-84
2022/01/24 09:20:13;;;;;;;16.23;11.93;;;2.70;99.90;;;;;;5056777;28;20253;-84
2022/01/24 09:22:40;;;;;;;13.50;10.45;;;;;;;;;;5056184;28;20243;-84
2022/01/24 09:25:10;;;;;;;15.00;10.60;;;2.80;99.90;;;;;;5053379;28;20204;-84
2022/01/24 09:27:37;;;;;;;14.55;9.70;;;;;;;;;;5050410;28;20711;-84
2022/01/24 09:30:06;;;;;;;16.52;9.45;;;;;;;;;;5055839;28;20200;-84
2022/01/24 09:32:33;;;;;;;11.98;8.45;;;;;;;;;;5050558;28;20259;-84
2022/01/24 09:35:00;;;;;;;10.07;8.65;;;;;;;;;;5055342;28;20812;-84
2022/01/24 09:37:28;;;;;;;12.48;9.95;;;;;;;;;;5057253;28;20557;-84
2022/01/24 09:39:55;;;;;;;8.38;7.25;;;;;;;;;;5051438;28;20196;-84
2022/01/24 09:42:22;;;;;;;10.77;7.82;;;;;;;;;;5051873;28;20277;-84
2022/01/24 09:44:49;;;;;;;15.70;9.48;;;;;;;;;;5058497;28;20218;-84
2022/01/24 09:47:18;;;;;;;9.65;8.60;;;;;;;;;;5054839;28;20659;-84
2022/01/24 09:49:48;;;;;;;11.52;8.48;;;4.10;99.90;;;;;;5057062;28;20211;-83
2022/01/24 09:52:15;;;;;;;10.77;8.27;;;;;;;;;;5052504;28;20257;-83
2022/01/24 09:54:42;;;;;;;9.35;7.05;;;;;;;;;;5050618;28;20215;-85
2022/01/24 09:57:10;;;;;;;14.65;8.35;;;;;;;;;;5051181;28;20657;-83
2022/01/24 09:59:37;;;;;;;15.25;8.35;;;;;;;;;;5056769;28;20285;-84
2022/01/24 10:02:04;;;;;;;9.40;6.88;;;3.40;99.90;;;;;;5054734;28;20318;-84
2022/01/24 10:04:33;;;;;;;7.25;6.00;;;;;;;;;;5055803;28;20677;-84
2022/01/24 10:07:06;;;;;;;9.15;7.10;;;;;;;;;;5058232;28;20239;-84
2022/01/24 10:09:37;;;;;;;9.10;6.75;;;3.40;99.90;;;;;;5051133;28;20614;-84
2022/01/24 10:12:27;;;;;;;6.88;5.75;;;3.40;99.90;;;;;;5056806;28;20216;-84
2022/01/24 10:17:43;;;;;;;9.32;6.90;;;3.60;99.90;;;;;;5052434;28;20285;-84
2022/01/24 10:20:21;;;;;;;11.40;7.40;;;3.50;99.90;;;;;;5053414;28;20250;-83
2022/01/24 10:23:15;;;;;;;7.95;5.85;;;3.70;98.90;;;;;;5054690;28;20235;-84
2022/01/24 10:25:51;;;;;;;7.80;5.85;;;3.60;99.90;;;;;;5047521;28;20306;-84
2022/01/24 10:28:30;;;;;;;7.72;6.85;;;3.70;99.90;;;;;;5045432;28;20256;-84
2022/01/24 10:31:07;;;;;;;6.88;5.88;;;3.70;99.90;;;;;;5054963;28;20882;-84
2022/01/24 10:33:50;;;;;;;7.35;4.90;;;;;;;;;;5050660;28;20203;-84
2022/01/24 10:36:28;;;;;;;6.70;4.82;;;3.70;99.90;;;;;;5043838;28;20204;-84
2022/01/24 10:39:16;;;;;;;8.88;6.03;;;3.80;99.90;;;;;;5045804;28;20200;-84
2022/01/24 10:42:09;;;;;;;9.43;6.43;;;3.70;99.90;;;;;;5043245;28;20828;-84
2022/01/24 10:44:38;;;;;;;11.82;6.93;;;3.80;99.90;;;;;;5047638;28;20199;-84
2022/01/24 10:47:17;;;;;;;8.73;7.05;;;3.80;99.90;;;;;;5050831;28;20656;-83
2022/01/24 10:49:45;;;;;;;7.97;5.93;;;4.50;99.90;;;;;;5054422;28;20283;-84
2022/01/24 10:52:18;;;;;;;8.32;6.65;;;4.20;99.90;;;;;;5047717;28;20224;-83
2022/01/24 10:54:46;;;;;;;8.00;5.63;;;;;;;;;;5050206;28;20207;-84
2022/01/24 10:57:22;;;;;;;8.18;6.63;;;3.90;99.90;;;;;;5046649;28;20196;-84
2022/01/24 10:59:50;;;;;;;8.95;6.47;;;;;;;;;;5057001;28;20207;-84
2022/01/24 11:02:18;;;;;;;8.80;6.70;;;4.10;99.90;;;;;;5041951;28;20278;-84
2022/01/24 11:04:46;;;;;;;8.02;5.70;;;;;;;;;;5052831;28;20257;-84
2022/01/24 11:07:14;;;;;;;6.40;5.63;;;;;;;;;;5054920;28;20211;-84
2022/01/24 11:09:41;;;;;;;7.00;5.22;;;;;;;;;;5056108;28;20741;-84
2022/01/24 11:12:11;;;;;;;7.05;5.35;;;3.90;99.90;;;;;;5050680;28;20234;-84
2022/01/24 11:14:39;;;;;;;7.47;5.80;;;;;;;;;;5046144;28;20207;-84
2022/01/24 11:17:10;;;;;;;11.40;6.43;;;4.30;99.90;;;;;;5055159;28;20256;-84
2022/01/24 11:19:42;;;;;;;10.88;7.47;;;;;;;;;;5039882;28;20208;-85
2022/01/24 11:22:19;;;;;;;9.13;6.75;;;;;;;;;;5044415;28;20285;-84
2022/01/24 11:24:53;;;;;;;7.07;6.00;;;4.20;99.90;;;;;;5055871;28;20306;-84
2022/01/24 11:27:20;;;;;;;8.45;5.65;;;;;;;;;;5049014;28;20672;-84
2022/01/24 11:29:50;;;;;;;7.57;5.90;;;4.20;99.90;;;;;;5053140;28;20200;-85
2022/01/24 11:32:24;;;;;;;6.97;5.13;;;4.20;99.90;;;;;;5053223;28;20689;-84
2022/01/24 11:34:54;;;;;;;10.45;6.07;;;4.20;99.90;;;;;;5053467;28;20203;-84
2022/01/24 11:37:36;;;;;;;6.20;5.60;;;;;;;;;;5052521;28;20191;-84
2022/01/24 11:40:05;;;;;;;12.15;5.90;;;;;;;;;;5047309;28;20240;-84
2022/01/24 11:42:36;;;;;;;7.68;6.63;;;4.30;99.90;;;;;;5054518;28;20864;-85
2022/01/24 11:45:10;;;;;;;8.95;6.90;;;;;;;;;;5049932;28;20741;-84
2022/01/24 11:47:38;;;;;;;7.25;6.07;;;;;;;;;;5054869;28;20195;-84
2022/01/24 11:50:20;;;;;;;8.02;5.22;;;;;;;;;;5054406;28;20251;-84
2022/01/24 11:52:47;;;;;;;7.47;5.80;;;;;;;;;;5056462;28;20219;-84
2022/01/24 11:55:21;;;;;;;7.97;6.78;;;;;;;;;;5049338;28;20776;-84
2022/01/24 11:57:50;;;;;;;7.32;5.78;;;;;;;;;;5053836;28;20736;-85
2022/01/24 12:00:26;;;;;;;15.48;6.95;;;4.50;99.90;;;;;;5055272;28;20200;-84
2022/01/24 12:02:54;;;;;;;9.50;6.82;;;;;;;;;;5045130;28;20296;-85
2022/01/24 12:05:24;;;;;;;9.90;5.97;;;4.70;99.90;;;;;;5059932;28;20203;-84
2022/01/24 12:07:52;;;;;;;5.03;4.55;;;;;;;;;;5055659;28;20208;-84
2022/01/24 12:10:42;;;;;;;10.80;5.35;;;;;;;;;;5057949;28;20207;-85
2022/01/24 12:13:13;;;;;;;7.90;5.40;;;4.80;99.90;;;;;;5049586;28;20193;-85
2022/01/24 12:15:54;;;;;;;7.18;5.22;;;;;;;;;;5050273;28;20571;-85
2022/01/24 12:18:23;;;;;;;10.52;4.90;;;4.80;99.00;;;;;;5048475;28;20219;-85
2022/01/24 12:20:51;;;;;;;4.60;4.20;;;;;;;;;;5057021;28;20203;-84
2022/01/24 12:23:32;;;;;;;7.65;4.85;;;;;;;;;;5050437;28;21903;-85
2022/01/24 12:26:02;;;;;;;7.82;4.63;;;;;;;;;;5056551;28;20321;-85
2022/01/24 12:28:31;;;;;;;7.15;4.90;;;4.80;99.90;;;;;;5057944;28;20281;-85
2022/01/24 12:30:59;;;;;;;6.00;4.25;;;;;;;;;;5055106;28;20593;-85
2022/01/24 12:33:30;;;;;;;6.78;5.43;;;;;;;;;;5052602;28;20226;-85
2022/01/24 12:35:57;;;;;;;5.07;4.15;;;;;;;;;;5057266;28;20208;-86
2022/01/24 12:38:24;;;;;;;5.10;4.55;;;;;;;;;;5060669;28;20214;-85
2022/01/24 12:41:15;;;;;;;5.50;4.45;;;;;;;;;;5056848;28;20199;-85
2022/01/24 12:43:53;;;;;;;5.90;4.20;;;;;;;;;;5057612;28;20293;-86
2022/01/24 12:46:21;;;;;;;5.93;4.32;;;;;;;;;;5054709;28;20211;-85
2022/01/24 12:48:49;;;;;;;5.78;4.45;;;;;;;;;;5060378;28;20203;-85
2022/01/24 12:51:16;;;;;;;5.50;3.70;;;;;;;;;;5059140;28;20283;-85
2022/01/24 12:53:44;;;;;;;5.60;4.07;;;;;;;;;;5061024;28;20207;-85
2022/01/24 12:56:14;;;;;;;5.18;3.67;;;;;;;;;;5055259;28;20603;-85
2022/01/24 12:58:43;;;;;;;5.90;4.43;;;5.20;99.90;;;;;;5037860;28;20219;-85
2022/01/24 13:01:20;;;;;;;9.52;4.28;;;;;;;;;;5056355;28;20211;-85
2022/01/24 13:03:48;;;;;;;7.65;3.85;;;;;;;;;;5051181;28;20232;-85
2022/01/24 13:06:15;;;;;;;6.72;4.45;;;;;;;;;;5052143;28;20740;-85
2022/01/24 13:08:52;;;;;;;4.28;3.88;;;;;;;;;;5058721;28;20207;-84
2022/01/24 13:11:21;;;;;;;7.93;4.05;;;;;;;;;;5046377;28;20265;-84
2022/01/24 13:14:03;;;;;;;5.60;4.25;;;;;;;;;;5046540;28;20220;-84
2022/01/24 13:22:29;;;;;;;5.65;3.45;;;;;;;;;;5055253;28;20235;-85
2022/01/24 13:25:07;;;;;;;4.07;3.58;;;;;;;;;;5051690;28;20199;-85
2022/01/24 13:27:37;;;;;;;5.22;3.58;;;;;;;;;;5054068;28;20352;-85
2022/01/24 13:30:04;;;;;;;4.65;3.92;;;;;;;;;;5057195;28;20215;-85
2022/01/24 13:32:42;;;;;;;5.93;4.13;;;;;;;;;;5055278;28;20210;-85
2022/01/24 13:35:16;;;;;;;4.47;3.97;;;;;;;;;;5052607;28;20196;-85
2022/01/24 13:37:44;;;;;;;7.45;4.25;;;;;;;;;;5056750;28;20260;-86
2022/01/24 13:40:12;;;;;;;4.47;3.63;;;5.50;99.50;;;;;;5054531;28;20250;-85
2022/01/24 13:42:40;;;;;;;11.50;3.88;;;;;;;;;;5052557;28;20274;-84
2022/01/24 13:45:08;;;;;;;5.43;3.45;;;;;;;;;;5052003;28;20215;-85
2022/01/24 13:47:36;;;;;;;5.15;3.42;;;;;;;;;;5057204;28;20203;-85
2022/01/24 13:50:06;;;;;;;4.95;3.30;;;5.50;97.90;;;;;;5052975;28;20226;-85
2022/01/24 13:52:33;;;;;;;5.13;3.47;;;;;;;;;;5056543;28;20204;-85
2022/01/24 13:55:16;;;;;;;7.25;3.65;;;;;;;;;;5050557;28;20613;-85
2022/01/24 13:57:49;;;;;;;4.15;3.60;;;5.30;99.00;;;;;;5057634;28;20641;-85
2022/01/24 14:00:22;;;;;;;5.50;3.42;;;5.20;98.60;;;;;;5052709;28;20279;-85
2022/01/24 14:02:50;;;;;;;4.88;3.65;;;;;;;;;;5052050;28;20219;-85
2022/01/24 14:05:18;;;;;;;5.35;3.50;;;;;;;;;;5055822;28;20561;-85
2022/01/24 14:07:45;;;;;;;7.47;3.25;;;;;;;;;;5049554;28;20289;-85
2022/01/24 14:10:15;;;;;;;4.18;3.17;;;5.40;96.40;;;;;;5054993;28;20211;-85
2022/01/24 14:12:51;;;;;;;4.93;3.58;;;5.40;97.90;;;;;;5058435;28;20216;-85
2022/01/24 14:15:24;;;;;;;6.15;3.38;;;;;;;;;;5058266;28;20245;-85
2022/01/24 14:18:24;;;;;;;5.90;3.92;;;;;;;;;;5051355;28;20310;-85
2022/01/24 14:20:56;;;;;;;11.13;4.80;;;5.40;99.00;;;;;;5054165;28;20207;-85
2022/01/24 14:23:25;;;;;;;5.75;4.43;;;4.90;98.70;;;;;;5056016;28;20235;-85
2022/01/24 14:25:53;;;;;;;5.38;4.20;;;5.30;99.40;;;;;;5048603;28;20211;-85
2022/01/24 14:28:23;;;;;;;5.22;3.78;;;;;;;;;;5055888;28;20721;-85
2022/01/24 14:30:54;;;;;;;5.05;3.58;;;5.30;97.70;;;;;;5058159;28;20292;-85
2022/01/24 14:33:22;;;;;;;6.05;3.80;;;;;;;;;;5051147;28;20270;-84
2022/01/24 14:35:53;;;;;;;6.88;4.15;;;7.40;99.90;;;;;;5044997;28;20219;-85
2022/01/24 14:38:32;;;;;;;6.47;3.78;;;;;;;;;;5051285;28;20427;-85
2022/01/24 14:41:01;;;;;;;5.47;4.15;;;;;;;;;;5051658;28;20248;-85
2022/01/24 14:46:18;;;;;;;9.50;4.03;;;5.40;99.90;;;;;;5056711;28;20229;-82
2022/01/24 14:48:49;;;;;;;4.50;3.60;;;5.40;99.90;;;;;;5048890;28;20207;-84
2022/01/24 14:51:17;;;;;;;4.93;3.67;;;;;;;;;;5051719;28;20192;-85
2022/01/24 14:53:44;;;;;;;5.75;3.80;;;;;;;;;;5048012;28;20279;-85
2022/01/24 14:56:14;;;;;;;4.68;3.92;;;5.50;98.70;;;;;;5046839;28;20236;-84
2022/01/24 14:58:42;;;;;;;6.00;3.35;;;;;;;;;;5057855;28;20207;-85
2022/01/24 15:01:10;;;;;;;4.85;3.85;;;;;;;;;;5052519;28;20743;-85
2022/01/24 15:03:37;;;;;;;7.43;4.28;;;;;;;;;;5046496;28;20240;-85
2022/01/24 15:06:05;;;;;;;6.65;3.85;;;;;;;;;;5053925;28;20283;-85
2022/01/24 15:08:32;;;;;;;4.25;3.92;;;;;;;;;;5056626;28;20200;-84
2022/01/24 15:10:59;;;;;;;5.20;4.70;;;;;;;;;;5051185;28;20253;-85
2022/01/24 15:13:32;;;;;;;5.13;4.35;;;;;;;;;;5052233;28;20207;-85
2022/01/24 15:16:12;;;;;;;4.70;3.00;;;5.20;99.60;;;;;;5052414;28;20299;-85
2022/01/24 15:24:27;;;;;;;9.02;3.47;;;;;;;;;;5043073;28;20270;-85
2022/01/24 15:26:54;;;;;;;7.35;4.55;;;;;;;;;;5053402;28;20200;-86
2022/01/24 15:29:22;;;;;;;6.43;4.22;;;;;;;;;;5051378;28;20195;-85
2022/01/24 15:31:50;;;;;;;4.28;3.65;;;;;;;;;;5056757;28;20270;-85
2022/01/24 15:34:19;;;;;;;9.07;4.10;;;5.10;97.90;;;;;;5042941;28;20630;-85
2022/01/24 15:36:47;;;;;;;4.32;3.92;;;5.20;99.90;;;;;;5057852;28;20204;-85
2022/01/24 15:39:15;;;;;;;4.85;3.80;;;;;;;;;;5052967;28;20597;-85
2022/01/24 15:41:53;;;;;;;3.22;2.90;;;;;;;;;;5052924;28;20261;-85
2022/01/24 15:44:34;;;;;;;5.25;3.90;;;;;;;;;;5052498;28;21055;-85
2022/01/24 15:47:18;;;;;;;5.55;4.43;;;5.00;99.90;;;;;;5059661;28;20615;-85
2022/01/24 15:49:46;;;;;;;8.48;4.10;;;4.90;99.30;;;;;;5054901;28;20231;-85
2022/01/24 15:52:13;;;;;;;4.90;3.20;;;;;;;;;;5059576;28;20212;-84
2022/01/24 15:54:42;;;;;;;10.18;3.88;;;;;;;;;;5052981;28;20199;-85
2022/01/24 15:59:54;;;;;;;4.72;3.92;;;;;;;;;;5051466;28;20212;-84
2022/01/24 16:02:23;;;;;;;8.10;4.05;;;;;;;;;;5058958;28;20909;-85
2022/01/24 16:04:50;;;;;;;8.63;4.30;;;;;;;;;;5057698;28;20788;-84